Diamond, Missouri
Current Conditions -  °F | °C
As of 9:53 PM on Tuesday 21 Oct 2014 (Local Time) from KJLN Reporting Station
Clear Clear  
Wind Chill: 58°   Ceiling: Unl
Heat Index: 58°   Visibility: 10mi
Dew Point: 49°   Wind: 7mph
Humidity: 72%   Direction: 120°ESE
Pressure: 30.11"   Gusts: NA
Location:  37°N, 94.32°W
Report Text: KJLN 220253Z AUTO 12006KT 10SM CLR 14/09 A3011 RMK AO2 SLP193 T01440094 53015 $
Loading
Personal Weather Stations






























Interactive Weather Map
Tropical Storm Tracking
New forecast layout! Learn more

10-Day Weather Forecast

Advertisements
Track Severe Weather on mobile